createdAt,value
2023-05-11T00:02:05.983Z,98715.25
2023-05-11T00:04:33.063Z,98717.18
2023-05-11T00:06:59.939Z,98715.96
2023-05-11T00:09:26.799Z,98718.83
2023-05-11T00:11:53.727Z,98721.02
2023-05-11T00:14:20.585Z,98723.51
2023-05-11T00:16:47.587Z,98727.37
2023-05-11T00:19:14.506Z,98722.10
2023-05-11T00:21:41.445Z,98723.73
2023-05-11T00:24:08.695Z,98724.14
2023-05-11T00:26:35.930Z,98720.92
2023-05-11T00:29:02.861Z,98723.55
2023-05-11T00:31:30.547Z,98719.83
2023-05-11T00:33:57.780Z,98721.13
2023-05-11T00:36:24.745Z,98718.28
2023-05-11T00:38:52.894Z,98719.75
2023-05-11T00:41:19.867Z,98725.61
2023-05-11T00:43:46.759Z,98722.57
2023-05-11T00:46:13.647Z,98724.95
2023-05-11T00:48:40.782Z,98722.45
2023-05-11T00:51:07.712Z,98722.61
2023-05-11T00:53:34.661Z,98718.96
2023-05-11T00:56:01.644Z,98721.77
2023-05-11T00:58:28.504Z,98718.27
2023-05-11T01:00:55.556Z,98718.05
2023-05-11T01:03:22.531Z,98715.66
2023-05-11T01:06:23.506Z,98716.80
2023-05-11T01:08:53.216Z,98722.67
2023-05-11T01:11:41.501Z,98718.79
2023-05-11T01:14:27.692Z,98719.88
2023-05-11T01:16:57.166Z,98724.52
2023-05-11T01:19:45.019Z,98726.98
2023-05-11T01:23:07.651Z,98726.43
2023-05-11T01:26:02.555Z,98725.07
2023-05-11T01:29:00.712Z,98723.93
2023-05-11T01:31:29.559Z,98726.54
2023-05-11T01:34:02.890Z,98725.02
2023-05-11T01:36:34.357Z,98723.23
2023-05-11T01:39:04.968Z,98721.00
2023-05-11T01:41:32.589Z,98717.89
2023-05-11T01:44:01.052Z,98721.92
2023-05-11T01:46:30.196Z,98721.68
2023-05-11T01:48:57.232Z,98721.30
2023-05-11T01:51:24.321Z,98720.06
2023-05-11T01:53:51.205Z,98721.69
2023-05-11T01:56:18.119Z,98720.58
2023-05-11T01:58:44.991Z,98723.09
2023-05-11T02:01:11.881Z,98726.02
2023-05-11T02:03:38.966Z,98726.61
2023-05-11T02:06:06.333Z,98726.98
2023-05-11T02:08:33.561Z,98728.80
2023-05-11T02:11:00.755Z,98732.56
2023-05-11T02:13:28.659Z,98730.16
2023-05-11T02:15:56.809Z,98726.63
2023-05-11T02:18:24.434Z,98727.91
2023-05-11T02:20:56.545Z,98728.13
2023-05-11T02:23:25.038Z,98726.92
2023-05-11T02:25:55.010Z,98732.55
2023-05-11T02:28:22.151Z,98730.49
2023-05-11T02:30:50.819Z,98728.04
2023-05-11T02:33:24.814Z,98728.21
2023-05-11T02:35:52.062Z,98731.23
2023-05-11T02:38:19.142Z,98732.32
2023-05-11T02:40:46.985Z,98727.04
2023-05-11T02:43:16.075Z,98728.14
2023-05-11T02:45:48.724Z,98729.86
2023-05-11T02:48:21.568Z,98733.92
2023-05-11T02:50:48.710Z,98727.88
2023-05-11T02:53:16.047Z,98729.33
2023-05-11T02:55:43.704Z,98739.30
2023-05-11T02:58:10.606Z,98738.30
2023-05-11T03:00:39.244Z,98742.00
2023-05-11T03:03:06.377Z,98744.70
2023-05-11T03:05:33.346Z,98739.47
2023-05-11T03:08:00.465Z,98742.89
2023-05-11T03:10:27.569Z,98742.49
2023-05-11T03:12:54.427Z,98746.40
2023-05-11T03:15:21.700Z,98750.90
2023-05-11T03:17:50.254Z,98752.28
2023-05-11T03:20:21.908Z,98752.84
2023-05-11T03:22:49.059Z,98748.05
2023-05-11T03:25:16.451Z,98750.55
2023-05-11T03:27:43.883Z,98748.33
2023-05-11T03:30:12.013Z,98752.79
2023-05-11T03:32:42.570Z,98756.27
2023-05-11T03:35:10.007Z,98756.02
2023-05-11T03:37:38.309Z,98757.52
2023-05-11T03:40:06.781Z,98754.23
2023-05-11T03:42:39.114Z,98759.42
2023-05-11T03:45:06.956Z,98755.55
2023-05-11T03:47:33.899Z,98760.98
2023-05-11T03:50:01.161Z,98760.27
2023-05-11T03:52:28.409Z,98758.48
2023-05-11T03:54:55.241Z,98757.95
2023-05-11T03:57:22.146Z,98759.96
2023-05-11T03:59:49.146Z,98757.48
2023-05-11T04:02:16.075Z,98761.31
2023-05-11T04:04:43.252Z,98764.48
2023-05-11T04:07:10.257Z,98765.70
2023-05-11T04:09:37.108Z,98768.01
2023-05-11T04:14:09.549Z,98775.31
2023-05-11T04:16:36.673Z,98776.54
2023-05-11T04:19:03.880Z,98776.85
2023-05-11T04:21:31.263Z,98777.15
2023-05-11T04:23:58.373Z,98776.51
2023-05-11T04:26:25.258Z,98778.54
2023-05-11T04:28:52.190Z,98782.34
2023-05-11T04:31:20.139Z,98785.95
2023-05-11T04:33:47.098Z,98791.27
2023-05-11T04:36:14.370Z,98792.25
2023-05-11T04:38:41.222Z,98792.18
2023-05-11T04:41:09.147Z,98789.55
2023-05-11T04:43:37.154Z,98792.33
2023-05-11T04:46:04.974Z,98788.19
2023-05-11T04:48:32.060Z,98788.26
2023-05-11T04:50:59.046Z,98789.38
2023-05-11T04:53:30.245Z,98792.27
2023-05-11T04:55:57.518Z,98792.13
2023-05-11T04:58:24.768Z,98788.95
2023-05-11T05:00:51.782Z,98791.48
2023-05-11T05:03:19.525Z,98786.07
2023-05-11T05:05:46.428Z,98786.76
2023-05-11T05:08:13.625Z,98789.23
2023-05-11T05:10:40.650Z,98790.15
2023-05-11T05:13:07.666Z,98790.56
2023-05-11T05:15:35.458Z,98788.64
2023-05-11T05:18:02.750Z,98787.90
2023-05-11T05:20:29.778Z,98787.45
2023-05-11T05:22:59.045Z,98792.52
2023-05-11T05:25:26.221Z,98795.42
2023-05-11T05:27:53.183Z,98796.58
2023-05-11T05:30:20.775Z,98798.19
2023-05-11T05:32:48.468Z,98799.67
2023-05-11T05:35:15.496Z,98798.17
2023-05-11T05:37:43.268Z,98794.59
2023-05-11T05:40:11.272Z,98795.61
2023-05-11T05:42:44.042Z,98795.55
2023-05-11T05:45:14.861Z,98795.20
2023-05-11T05:47:42.183Z,98795.35
2023-05-11T05:50:11.936Z,98793.92
2023-05-11T05:52:40.925Z,98790.92
2023-05-11T05:55:08.730Z,98790.13
2023-05-11T05:57:35.941Z,98789.16
2023-05-11T06:00:04.073Z,98787.66
2023-05-11T06:02:39.919Z,98786.98
2023-05-11T06:05:08.208Z,98783.62
2023-05-11T06:07:35.249Z,98784.40
2023-05-11T06:10:02.649Z,98788.98
2023-05-11T06:12:30.232Z,98791.23
2023-05-11T06:14:57.432Z,98793.14
2023-05-11T06:17:24.651Z,98794.27
2023-05-11T06:19:51.612Z,98796.83
2023-05-11T06:22:21.217Z,98797.52
2023-05-11T06:24:48.232Z,98800.31
2023-05-11T06:27:17.925Z,98800.83
2023-05-11T06:29:45.280Z,98795.99
2023-05-11T06:32:17.321Z,98796.71
2023-05-11T06:34:44.290Z,98799.73
2023-05-11T06:37:11.310Z,98798.35
2023-05-11T06:39:38.125Z,98797.94
2023-05-11T06:42:07.912Z,98798.34
2023-05-11T06:44:34.855Z,98799.89
2023-05-11T06:47:01.725Z,98798.20
2023-05-11T06:49:28.982Z,98799.90
2023-05-11T06:51:55.843Z,98799.57
2023-05-11T06:54:22.914Z,98802.78
2023-05-11T06:56:49.910Z,98803.39
2023-05-11T06:59:16.791Z,98804.98
2023-05-11T07:01:44.038Z,98803.20
2023-05-11T07:04:11.063Z,98801.40
2023-05-11T07:06:37.988Z,98800.04
2023-05-11T07:09:05.046Z,98797.64
2023-05-11T07:11:32.386Z,98798.33
2023-05-11T07:13:59.333Z,98796.74
2023-05-11T07:16:26.432Z,98795.27
2023-05-11T07:18:53.502Z,98792.52
2023-05-11T07:21:22.284Z,98794.59
2023-05-11T07:23:49.262Z,98794.38
2023-05-11T07:26:16.522Z,98798.36
2023-05-11T07:28:43.360Z,98789.48
2023-05-11T07:31:10.284Z,98794.89
2023-05-11T07:33:38.436Z,98795.15
2023-05-11T07:36:06.904Z,98793.95
2023-05-11T07:38:33.863Z,98796.93
2023-05-11T07:41:00.759Z,98801.00
2023-05-11T07:43:27.709Z,98794.30
2023-05-11T07:45:54.673Z,98790.52
2023-05-11T07:48:21.739Z,98791.67
2023-05-11T07:50:49.732Z,98790.13
2023-05-11T07:53:16.775Z,98791.14
2023-05-11T07:55:43.625Z,98791.27
2023-05-11T07:58:10.726Z,98787.88
2023-05-11T08:00:38.126Z,98791.52
2023-05-11T08:03:05.026Z,98790.83
2023-05-11T08:05:38.007Z,98785.43
2023-05-11T08:08:05.280Z,98785.55
2023-05-11T08:10:32.448Z,98785.10
2023-05-11T08:12:59.652Z,98784.75
2023-05-11T08:15:27.069Z,98784.05
2023-05-11T08:17:54.213Z,98783.38
2023-05-11T08:20:21.125Z,98780.80
2023-05-11T08:22:48.142Z,98779.48
2023-05-11T08:25:18.119Z,98773.91
2023-05-11T08:27:45.260Z,98772.73
2023-05-11T08:30:12.463Z,98770.30
2023-05-11T08:32:57.118Z,98775.42
2023-05-11T08:35:25.804Z,98772.41
2023-05-11T08:37:55.034Z,98768.73
2023-05-11T08:40:21.882Z,98763.11
2023-05-11T08:42:51.133Z,98769.27
2023-05-11T08:45:18.175Z,98766.45
2023-05-11T08:47:46.662Z,98764.29
2023-05-11T08:50:14.054Z,98761.60
2023-05-11T08:52:41.306Z,98757.95
2023-05-11T08:55:13.016Z,98753.88
2023-05-11T08:57:40.514Z,98747.77
2023-05-11T09:00:08.997Z,98746.48
2023-05-11T09:02:36.055Z,98745.50
2023-05-11T09:05:05.549Z,98744.63
2023-05-11T09:07:33.340Z,98738.34
2023-05-11T09:10:00.317Z,98734.34
2023-05-11T09:17:04.692Z,98738.67
2023-05-11T09:19:31.833Z,98746.93
2023-05-11T09:22:02.566Z,98740.92
2023-05-11T09:24:31.088Z,98741.88
2023-05-11T09:27:09.176Z,98742.67
2023-05-11T09:29:42.793Z,98739.02
2023-05-11T09:32:10.253Z,98738.70
2023-05-11T09:34:43.061Z,98735.10
2023-05-11T09:37:16.852Z,98737.30
2023-05-11T09:40:04.798Z,98737.16
2023-05-11T09:42:30.687Z,98731.14
2023-05-11T09:44:58.512Z,98728.77
2023-05-11T09:47:27.692Z,98730.73
2023-05-11T09:49:57.216Z,98726.56
2023-05-11T09:52:26.560Z,98728.84
2023-05-11T09:54:53.918Z,98723.19
2023-05-11T09:57:28.478Z,98725.14
2023-05-11T09:59:59.711Z,98718.14
2023-05-11T10:02:30.926Z,98711.91
2023-05-11T10:04:59.124Z,98717.77
2023-05-11T10:07:29.886Z,98709.48
2023-05-11T10:10:05.739Z,98706.45
2023-05-11T10:12:33.879Z,98711.11
2023-05-11T10:15:02.175Z,98708.77
2023-05-11T10:17:30.926Z,98704.85
2023-05-11T10:19:58.354Z,98702.17
2023-05-11T10:22:25.941Z,98703.86
2023-05-11T10:24:53.377Z,98698.66
2023-05-11T10:27:20.889Z,98696.37
2023-05-11T10:32:54.927Z,98695.73
2023-05-11T10:35:22.530Z,98694.98
2023-05-11T10:37:50.712Z,98693.75
2023-05-11T10:40:18.392Z,98694.28
2023-05-11T10:42:45.522Z,98683.02
2023-05-11T10:45:21.971Z,98682.13
2023-05-11T10:48:07.631Z,98679.66
2023-05-11T10:51:12.664Z,98674.28
2023-05-11T10:54:12.560Z,98671.95
2023-05-11T10:57:05.771Z,98668.70
2023-05-11T11:00:12.079Z,98674.28
2023-05-11T11:02:39.726Z,98673.61
2023-05-11T11:05:10.849Z,98672.98
2023-05-11T11:07:56.919Z,98667.59
2023-05-11T11:10:37.169Z,98667.02
2023-05-11T11:13:09.578Z,98669.20
2023-05-11T11:15:57.236Z,98671.67
2023-05-11T11:18:33.658Z,98673.70
2023-05-11T11:21:01.822Z,98666.70
2023-05-11T11:23:50.235Z,98660.83
2023-05-11T11:26:38.561Z,98656.23
2023-05-11T11:29:11.091Z,98653.55
2023-05-11T11:31:40.591Z,98654.22
2023-05-11T11:34:37.052Z,98652.49
2023-05-11T11:37:04.453Z,98657.66
2023-05-11T11:39:43.792Z,98653.29
2023-05-11T11:42:12.554Z,98658.39
2023-05-11T11:44:39.953Z,98659.93
2023-05-11T11:47:16.575Z,98657.06
2023-05-11T11:49:44.797Z,98656.17
2023-05-11T11:52:26.508Z,98647.16
2023-05-11T11:54:54.212Z,98651.27
2023-05-11T11:57:32.625Z,98648.64
2023-05-11T12:00:00.238Z,98651.66
2023-05-11T12:02:27.709Z,98650.44
2023-05-11T12:05:00.175Z,98642.11
2023-05-11T12:07:27.417Z,98645.48
2023-05-11T12:09:54.282Z,98644.81
2023-05-11T12:12:21.394Z,98644.33
2023-05-11T12:14:51.170Z,98644.86
2023-05-11T12:17:29.789Z,98640.62
2023-05-11T12:20:14.561Z,98640.67
2023-05-11T12:22:41.762Z,98638.39
2023-05-11T12:25:11.417Z,98639.23
2023-05-11T12:27:49.936Z,98632.95
2023-05-11T12:30:21.451Z,98630.27
2023-05-11T12:32:48.524Z,98630.02
2023-05-11T12:35:16.641Z,98627.15
2023-05-11T12:37:44.252Z,98629.10
2023-05-11T12:40:11.908Z,98626.44
2023-05-11T12:42:38.801Z,98625.22
2023-05-11T12:45:06.225Z,98627.19
2023-05-11T12:47:35.502Z,98622.10
2023-05-11T12:50:02.635Z,98621.23
2023-05-11T12:52:29.480Z,98617.90
2023-05-11T12:55:00.260Z,98615.65
2023-05-11T12:57:34.105Z,98612.91
2023-05-11T13:00:11.425Z,98615.61
2023-05-11T13:02:51.171Z,98609.51
2023-05-11T13:05:19.688Z,98605.66
2023-05-11T13:07:48.642Z,98601.34
2023-05-11T13:10:15.575Z,98596.41
2023-05-11T13:12:49.829Z,98594.34
2023-05-11T13:15:16.922Z,98593.39
2023-05-11T13:17:44.251Z,98596.79
2023-05-11T13:20:34.837Z,98593.54
2023-05-11T13:23:06.094Z,98595.11
2023-05-11T13:25:33.609Z,98599.77
2023-05-11T13:28:01.623Z,98601.54
2023-05-11T13:30:33.413Z,98598.86
2023-05-11T13:33:02.012Z,98595.84
2023-05-11T13:35:28.923Z,98592.73
2023-05-11T13:37:56.405Z,98588.83
2023-05-11T13:40:23.419Z,98587.04
2023-05-11T13:42:50.223Z,98591.41
2023-05-11T13:45:17.891Z,98591.73
2023-05-11T13:47:45.621Z,98593.05
2023-05-11T13:50:12.969Z,98589.16
2023-05-11T13:52:40.820Z,98585.11
2023-05-11T13:55:08.365Z,98588.23
2023-05-11T13:57:35.450Z,98583.17
2023-05-11T14:00:02.697Z,98586.08
2023-05-11T14:02:38.720Z,98584.18
2023-05-11T14:05:06.041Z,98583.17
2023-05-11T14:07:45.752Z,98577.42
2023-05-11T14:10:14.551Z,98575.21
2023-05-11T14:12:41.529Z,98579.06
2023-05-11T14:15:09.276Z,98578.75
2023-05-11T14:17:36.332Z,98578.48
2023-05-11T14:20:04.046Z,98582.27
2023-05-11T14:22:31.001Z,98576.79
2023-05-11T14:24:58.003Z,98579.33
2023-05-11T14:27:24.821Z,98580.87
2023-05-11T14:29:52.417Z,98579.34
2023-05-11T14:32:19.749Z,98576.23
2023-05-11T14:34:46.993Z,98577.17
2023-05-11T14:37:13.904Z,98576.91
2023-05-11T14:39:41.208Z,98579.17
2023-05-11T14:42:08.480Z,98574.98
2023-05-11T14:44:35.412Z,98571.49
2023-05-11T14:47:02.383Z,98577.92
2023-05-11T14:49:29.267Z,98576.83
2023-05-11T14:51:57.878Z,98576.64
2023-05-11T14:54:24.966Z,98576.35
2023-05-11T14:56:54.117Z,98574.86
2023-05-11T14:59:21.664Z,98572.27
2023-05-11T15:01:49.557Z,98577.71
2023-05-11T15:04:17.001Z,98574.08
2023-05-11T15:06:44.106Z,98573.88
2023-05-11T15:09:11.097Z,98574.95
2023-05-11T15:11:38.151Z,98571.45
2023-05-11T15:14:08.175Z,98568.55
2023-05-11T15:16:35.360Z,98574.52
2023-05-11T15:19:02.302Z,98572.59
2023-05-11T15:21:29.258Z,98568.98
2023-05-11T15:23:56.272Z,98572.57
2023-05-11T15:26:23.171Z,98574.52
2023-05-11T15:28:50.102Z,98576.08
2023-05-11T15:31:19.395Z,98575.86
2023-05-11T15:33:48.691Z,98575.69
2023-05-11T15:36:15.791Z,98577.67
2023-05-11T15:38:42.970Z,98577.14
2023-05-11T15:41:12.838Z,98574.73
2023-05-11T15:43:39.717Z,98576.64
2023-05-11T15:46:10.244Z,98576.14
2023-05-11T15:48:37.371Z,98576.17
2023-05-11T15:51:06.595Z,98584.10
2023-05-11T15:53:33.523Z,98581.23
2023-05-11T15:56:00.498Z,98579.45
2023-05-11T15:58:29.181Z,98577.63
2023-05-11T16:00:58.563Z,98581.16
2023-05-11T16:03:26.044Z,98582.02
2023-05-11T16:05:53.482Z,98582.94
2023-05-11T16:08:20.678Z,98584.93
2023-05-11T16:10:47.669Z,98587.70
2023-05-11T16:13:14.640Z,98585.05
2023-05-11T16:15:41.511Z,98585.35
2023-05-11T16:18:08.565Z,98586.14
2023-05-11T16:20:35.486Z,98588.38
2023-05-11T16:23:02.395Z,98592.20
2023-05-11T16:25:29.369Z,98597.30
2023-05-11T16:27:58.551Z,98597.00
2023-05-11T16:30:26.113Z,98598.73
2023-05-11T16:32:53.698Z,98599.56
2023-05-11T16:35:20.994Z,98600.35
2023-05-11T16:37:48.384Z,98597.70
2023-05-11T16:40:19.191Z,98597.44
2023-05-11T16:42:47.536Z,98600.02
2023-05-11T16:45:15.182Z,98600.36
2023-05-11T16:47:43.222Z,98605.11
2023-05-11T16:50:10.870Z,98607.30
2023-05-11T16:52:37.788Z,98607.73
2023-05-11T16:55:05.109Z,98608.66
2023-05-11T16:57:32.009Z,98607.95
2023-05-11T16:59:58.914Z,98607.17
2023-05-11T17:02:25.945Z,98605.76
2023-05-11T17:04:52.994Z,98608.42
2023-05-11T17:07:19.873Z,98610.52
2023-05-11T17:09:46.813Z,98610.95
2023-05-11T17:12:13.869Z,98612.34
2023-05-11T17:14:40.797Z,98613.90
2023-05-11T17:17:08.207Z,98616.84
2023-05-11T17:19:35.122Z,98621.78
2023-05-11T17:22:02.369Z,98623.20
2023-05-11T17:24:29.352Z,98622.45
2023-05-11T17:26:56.327Z,98625.91
2023-05-11T17:29:23.274Z,98625.20
2023-05-11T17:31:51.869Z,98627.08
2023-05-11T17:34:19.750Z,98627.40
2023-05-11T17:36:47.779Z,98632.13
2023-05-11T17:39:16.128Z,98636.05
2023-05-11T17:41:43.385Z,98640.67
2023-05-11T17:44:10.486Z,98640.76
2023-05-11T17:46:39.860Z,98644.64
2023-05-11T17:49:07.356Z,98646.73
2023-05-11T17:51:36.840Z,98649.33
2023-05-11T17:54:03.913Z,98653.76
2023-05-11T17:56:31.589Z,98650.58
2023-05-11T17:58:58.548Z,98653.55
2023-05-11T18:01:27.529Z,98657.64
2023-05-11T18:03:54.755Z,98658.91
2023-05-11T18:06:21.766Z,98660.70
2023-05-11T18:08:48.827Z,98665.90
2023-05-11T18:11:15.713Z,98667.15
2023-05-11T18:13:42.724Z,98668.55
2023-05-11T18:16:09.894Z,98672.65
2023-05-11T18:18:36.977Z,98672.35
2023-05-11T18:21:05.651Z,98675.47
2023-05-11T18:23:32.903Z,98677.88
2023-05-11T18:25:59.973Z,98678.21
2023-05-11T18:28:27.097Z,98681.37
2023-05-11T18:30:54.342Z,98680.67
2023-05-11T18:33:21.349Z,98686.15
2023-05-11T18:35:48.358Z,98691.28
2023-05-11T18:38:15.215Z,98692.52
2023-05-11T18:40:42.108Z,98697.17
2023-05-11T18:43:09.670Z,98698.63
2023-05-11T18:45:36.530Z,98698.95
2023-05-11T18:48:03.872Z,98708.25
2023-05-11T18:50:30.853Z,98708.71
2023-05-11T18:52:57.926Z,98709.95
2023-05-11T18:55:25.049Z,98713.83
2023-05-11T18:57:52.861Z,98713.27
2023-05-11T19:00:20.737Z,98710.74
2023-05-11T19:02:48.374Z,98714.84
2023-05-11T19:05:15.745Z,98715.61
2023-05-11T19:07:42.695Z,98715.05
2023-05-11T19:10:10.079Z,98712.09
2023-05-11T19:12:37.344Z,98718.08
2023-05-11T19:15:04.685Z,98715.94
2023-05-11T19:17:31.616Z,98717.41
2023-05-11T19:19:58.737Z,98715.77
2023-05-11T19:22:26.158Z,98715.27
2023-05-11T19:24:53.086Z,98714.14
2023-05-11T19:27:20.001Z,98715.48
2023-05-11T19:29:49.566Z,98719.67
2023-05-11T19:32:19.930Z,98717.50
2023-05-11T19:34:47.250Z,98721.52
2023-05-11T19:37:14.124Z,98720.32
2023-05-11T19:39:41.380Z,98719.47
2023-05-11T19:42:08.508Z,98723.20
2023-05-11T19:44:37.963Z,98725.21
2023-05-11T19:47:04.851Z,98723.84
2023-05-11T19:49:31.715Z,98728.79
2023-05-11T19:51:59.134Z,98733.48
2023-05-11T19:54:26.036Z,98735.56
2023-05-11T19:56:53.032Z,98739.16
2023-05-11T19:59:20.302Z,98739.63
2023-05-11T20:01:47.303Z,98739.77
2023-05-11T20:04:15.032Z,98744.08
2023-05-11T20:06:41.945Z,98744.42
2023-05-11T20:09:08.912Z,98745.84
2023-05-11T20:11:35.930Z,98747.14
2023-05-11T20:14:04.779Z,98745.21
2023-05-11T20:16:32.183Z,98743.09
2023-05-11T20:18:59.647Z,98741.94
2023-05-11T20:21:26.780Z,98741.84
2023-05-11T20:23:53.759Z,98742.73
2023-05-11T20:26:20.655Z,98741.63
2023-05-11T20:28:47.773Z,98743.09
2023-05-11T20:31:14.663Z,98746.41
2023-05-11T20:36:14.298Z,98743.85
2023-05-11T20:38:41.187Z,98746.08
2023-05-11T20:41:08.287Z,98749.48
2023-05-11T20:43:35.129Z,98748.59
2023-05-11T20:46:03.547Z,98749.27
2023-05-11T20:48:39.677Z,98750.40
2023-05-11T20:51:07.849Z,98749.44
2023-05-11T20:53:37.975Z,98749.45
2023-05-11T20:56:05.009Z,98751.62
2023-05-11T20:58:31.967Z,98750.62
2023-05-11T21:00:59.114Z,98749.88
2023-05-11T21:03:26.779Z,98750.97
2023-05-11T21:05:53.860Z,98752.52
2023-05-11T21:08:20.828Z,98753.86
2023-05-11T21:10:47.753Z,98754.39
2023-05-11T21:13:16.984Z,98756.90
2023-05-11T21:15:43.816Z,98757.76
2023-05-11T21:18:10.843Z,98759.38
2023-05-11T21:20:37.817Z,98755.71
2023-05-11T21:23:04.807Z,98756.15
2023-05-11T21:25:31.644Z,98754.74
2023-05-11T21:28:00.894Z,98754.42
2023-05-11T21:30:30.309Z,98751.05
2023-05-11T21:32:57.486Z,98752.46
2023-05-11T21:35:24.386Z,98752.65
2023-05-11T21:37:51.464Z,98752.88
2023-05-11T21:40:18.676Z,98753.84
2023-05-11T21:42:46.344Z,98755.56
2023-05-11T21:45:13.282Z,98756.36
2023-05-11T21:47:40.235Z,98761.45
2023-05-11T21:50:08.725Z,98762.73
2023-05-11T21:52:37.190Z,98762.98
2023-05-11T21:55:04.887Z,98765.98
2023-05-11T21:57:31.824Z,98764.63
2023-05-11T21:59:58.694Z,98767.71
2023-05-11T22:02:25.915Z,98770.14
2023-05-11T22:04:53.108Z,98770.80
2023-05-11T22:07:20.222Z,98771.73
2023-05-11T22:09:47.125Z,98772.77
2023-05-11T22:12:14.036Z,98769.35
2023-05-11T22:14:41.538Z,98768.73
2023-05-11T22:17:08.653Z,98765.78
2023-05-11T22:19:35.708Z,98766.58
2023-05-11T22:22:02.621Z,98764.43
2023-05-11T22:24:29.679Z,98764.16
2023-05-11T22:26:56.603Z,98762.46
2023-05-11T22:29:23.419Z,98763.02
2023-05-11T22:31:50.364Z,98762.88
2023-05-11T22:34:19.348Z,98759.53
2023-05-11T22:36:48.833Z,98759.68
2023-05-11T22:42:37.989Z,98763.45
2023-05-11T22:45:05.432Z,98769.54
2023-05-11T22:50:31.767Z,98767.50
2023-05-11T22:52:58.714Z,98767.40
2023-05-11T22:55:25.774Z,98763.36
2023-05-11T22:57:52.720Z,98762.74
2023-05-11T23:00:20.573Z,98763.23
2023-05-11T23:02:47.904Z,98761.42
2023-05-11T23:05:14.948Z,98763.52
2023-05-11T23:07:42.113Z,98763.31
2023-05-11T23:10:09.453Z,98762.01
2023-05-11T23:12:36.366Z,98760.52
2023-05-11T23:15:03.990Z,98761.64
2023-05-11T23:17:31.057Z,98767.60
2023-05-11T23:19:58.189Z,98767.31
2023-05-11T23:22:25.229Z,98768.14
2023-05-11T23:24:52.173Z,98767.23
2023-05-11T23:27:19.085Z,98768.20
2023-05-11T23:29:46.058Z,98771.30
2023-05-11T23:32:13.167Z,98769.73
2023-05-11T23:34:40.353Z,98769.35
2023-05-11T23:37:07.497Z,98767.70
2023-05-11T23:39:34.458Z,98771.34
2023-05-11T23:42:01.726Z,98772.04
2023-05-11T23:44:28.585Z,98771.30
2023-05-11T23:46:55.633Z,98771.64
2023-05-11T23:49:22.569Z,98773.96
2023-05-11T23:51:49.532Z,98775.64
2023-05-11T23:54:16.525Z,98769.45
2023-05-11T23:56:44.393Z,98768.55
2023-05-11T23:59:11.288Z,98767.73
